sensor_id;sensor_type;location;lat;lon;timestamp;pressure;altitude;pressure_sealevel;temperature;humidity
30967;BME280;17649;51.836;8.330;2024-01-15T00:00:10;99476.00;;;1.69;100.00
30967;BME280;17649;51.836;8.330;2024-01-15T00:03:11;99467.53;;;1.69;100.00
30967;BME280;17649;51.836;8.330;2024-01-15T00:06:11;99460.72;;;1.69;100.00
30967;BME280;17649;51.836;8.330;2024-01-15T00:09:12;99469.50;;;1.61;100.00
30967;BME280;17649;51.836;8.330;2024-01-15T00:12:12;99468.16;;;1.52;100.00
30967;BME280;17649;51.836;8.330;2024-01-15T00:15:12;99462.53;;;1.66;100.00
30967;BME280;17649;51.836;8.330;2024-01-15T00:18:13;99472.44;;;1.73;100.00
30967;BME280;17649;51.836;8.330;2024-01-15T00:21:13;99457.44;;;1.66;100.00
30967;BME280;17649;51.836;8.330;2024-01-15T00:24:14;99451.56;;;1.64;100.00
30967;BME280;17649;51.836;8.330;2024-01-15T00:27:14;99443.88;;;1.65;100.00
30967;BME280;17649;51.836;8.330;2024-01-15T00:30:14;99440.75;;;1.81;100.00
30967;BME280;17649;51.836;8.330;2024-01-15T00:33:15;99439.78;;;2.05;100.00
30967;BME280;17649;51.836;8.330;2024-01-15T00:36:15;99445.00;;;1.80;100.00
30967;BME280;17649;51.836;8.330;2024-01-15T00:39:16;99447.25;;;1.66;100.00
30967;BME280;17649;51.836;8.330;2024-01-15T00:42:17;99439.03;;;1.58;100.00
30967;BME280;17649;51.836;8.330;2024-01-15T00:45:17;99438.91;;;1.61;100.00
30967;BME280;17649;51.836;8.330;2024-01-15T00:48:21;99442.41;;;1.58;100.00
30967;BME280;17649;51.836;8.330;2024-01-15T00:51:21;99437.00;;;1.67;100.00
30967;BME280;17649;51.836;8.330;2024-01-15T00:54:21;99431.25;;;1.61;100.00
30967;BME280;17649;51.836;8.330;2024-01-15T00:57:22;99445.22;;;1.74;100.00
30967;BME280;17649;51.836;8.330;2024-01-15T01:00:22;99441.19;;;1.90;100.00
30967;BME280;17649;51.836;8.330;2024-01-15T01:03:23;99437.63;;;1.72;100.00
30967;BME280;17649;51.836;8.330;2024-01-15T01:06:23;99432.66;;;1.69;100.00
30967;BME280;17649;51.836;8.330;2024-01-15T01:09:23;99451.88;;;1.78;100.00
30967;BME280;17649;51.836;8.330;2024-01-15T01:12:24;99451.72;;;2.04;100.00
30967;BME280;17649;51.836;8.330;2024-01-15T01:15:25;99448.69;;;2.17;100.00
30967;BME280;17649;51.836;8.330;2024-01-15T01:18:25;99433.00;;;2.04;100.00
30967;BME280;17649;51.836;8.330;2024-01-15T01:21:25;99440.25;;;1.93;100.00
30967;BME280;17649;51.836;8.330;2024-01-15T01:24:26;99437.03;;;2.31;100.00
30967;BME280;17649;51.836;8.330;2024-01-15T01:27:26;99437.44;;;1.77;100.00
30967;BME280;17649;51.836;8.330;2024-01-15T01:30:26;99433.03;;;1.59;100.00
30967;BME280;17649;51.836;8.330;2024-01-15T01:33:27;99429.16;;;1.72;100.00
30967;BME280;17649;51.836;8.330;2024-01-15T01:36:27;99426.34;;;1.56;100.00
30967;BME280;17649;51.836;8.330;2024-01-15T01:39:27;99417.63;;;1.62;100.00
30967;BME280;17649;51.836;8.330;2024-01-15T01:42:28;99418.97;;;1.48;100.00
30967;BME280;17649;51.836;8.330;2024-01-15T01:45:28;99414.72;;;1.49;100.00
30967;BME280;17649;51.836;8.330;2024-01-15T01:48:29;99416.78;;;1.39;100.00
30967;BME280;17649;51.836;8.330;2024-01-15T01:51:30;99410.47;;;1.26;100.00
30967;BME280;17649;51.836;8.330;2024-01-15T01:54:32;99402.56;;;1.32;100.00
30967;BME280;17649;51.836;8.330;2024-01-15T01:57:33;99400.72;;;1.37;100.00
30967;BME280;17649;51.836;8.330;2024-01-15T02:00:35;99401.09;;;1.50;100.00
30967;BME280;17649;51.836;8.330;2024-01-15T02:03:36;99396.75;;;1.52;100.00
30967;BME280;17649;51.836;8.330;2024-01-15T02:06:36;99404.66;;;1.68;100.00
30967;BME280;17649;51.836;8.330;2024-01-15T02:09:37;99393.03;;;1.61;100.00
30967;BME280;17649;51.836;8.330;2024-01-15T02:12:37;99389.25;;;1.49;100.00
30967;BME280;17649;51.836;8.330;2024-01-15T02:15:38;99394.69;;;1.62;100.00
30967;BME280;17649;51.836;8.330;2024-01-15T02:18:45;99385.72;;;1.52;100.00
30967;BME280;17649;51.836;8.330;2024-01-15T02:21:46;99399.78;;;1.62;100.00
30967;BME280;17649;51.836;8.330;2024-01-15T02:24:47;99395.72;;;1.79;100.00
30967;BME280;17649;51.836;8.330;2024-01-15T02:27:47;99385.56;;;1.56;100.00
30967;BME280;17649;51.836;8.330;2024-01-15T02:30:48;99381.09;;;1.61;100.00
30967;BME280;17649;51.836;8.330;2024-01-15T02:33:48;99374.81;;;1.70;100.00
30967;BME280;17649;51.836;8.330;2024-01-15T02:36:48;99379.38;;;1.62;100.00
30967;BME280;17649;51.836;8.330;2024-01-15T02:39:49;99387.50;;;1.49;100.00
30967;BME280;17649;51.836;8.330;2024-01-15T02:42:49;99384.66;;;1.57;100.00
30967;BME280;17649;51.836;8.330;2024-01-15T02:45:49;99376.06;;;1.38;100.00
30967;BME280;17649;51.836;8.330;2024-01-15T02:48:50;99390.41;;;1.40;100.00
30967;BME280;17649;51.836;8.330;2024-01-15T02:51:50;99382.47;;;1.25;100.00
30967;BME280;17649;51.836;8.330;2024-01-15T02:54:50;99398.47;;;1.52;100.00
30967;BME280;17649;51.836;8.330;2024-01-15T02:57:50;99401.19;;;1.47;100.00
30967;BME280;17649;51.836;8.330;2024-01-15T03:00:51;99387.97;;;1.37;100.00
30967;BME280;17649;51.836;8.330;2024-01-15T03:03:51;99393.84;;;1.39;100.00
30967;BME280;17649;51.836;8.330;2024-01-15T03:06:51;99399.38;;;1.51;100.00
30967;BME280;17649;51.836;8.330;2024-01-15T03:09:52;99404.66;;;1.68;100.00
30967;BME280;17649;51.836;8.330;2024-01-15T03:12:52;99408.09;;;1.67;100.00
30967;BME280;17649;51.836;8.330;2024-01-15T03:15:52;99399.56;;;1.68;100.00
30967;BME280;17649;51.836;8.330;2024-01-15T03:18:53;99394.81;;;1.59;100.00
30967;BME280;17649;51.836;8.330;2024-01-15T03:21:53;99399.06;;;1.58;100.00
30967;BME280;17649;51.836;8.330;2024-01-15T03:24:55;99387.91;;;1.61;100.00
30967;BME280;17649;51.836;8.330;2024-01-15T03:27:55;99381.84;;;1.41;100.00
30967;BME280;17649;51.836;8.330;2024-01-15T03:30:55;99387.66;;;1.45;100.00
30967;BME280;17649;51.836;8.330;2024-01-15T03:33:56;99384.38;;;1.65;100.00
30967;BME280;17649;51.836;8.330;2024-01-15T03:36:56;99390.84;;;1.73;100.00
30967;BME280;17649;51.836;8.330;2024-01-15T03:39:56;99367.53;;;1.61;100.00
30967;BME280;17649;51.836;8.330;2024-01-15T03:42:57;99379.31;;;1.63;100.00
30967;BME280;17649;51.836;8.330;2024-01-15T03:45:57;99356.28;;;1.66;100.00
30967;BME280;17649;51.836;8.330;2024-01-15T03:48:57;99372.16;;;1.73;100.00
30967;BME280;17649;51.836;8.330;2024-01-15T03:51:58;99366.53;;;1.65;100.00
30967;BME280;17649;51.836;8.330;2024-01-15T03:54:58;99358.88;;;1.65;100.00
30967;BME280;17649;51.836;8.330;2024-01-15T03:57:59;99362.09;;;1.70;100.00
30967;BME280;17649;51.836;8.330;2024-01-15T04:00:59;99375.16;;;1.61;100.00
30967;BME280;17649;51.836;8.330;2024-01-15T04:03:59;99378.63;;;1.82;100.00
30967;BME280;17649;51.836;8.330;2024-01-15T04:07:00;99371.81;;;1.82;100.00
30967;BME280;17649;51.836;8.330;2024-01-15T04:10:00;99354.84;;;1.81;100.00
30967;BME280;17649;51.836;8.330;2024-01-15T04:13:00;99375.81;;;1.88;100.00
30967;BME280;17649;51.836;8.330;2024-01-15T04:16:01;99382.94;;;2.01;100.00
30967;BME280;17649;51.836;8.330;2024-01-15T04:19:03;99379.50;;;2.02;100.00
30967;BME280;17649;51.836;8.330;2024-01-15T04:22:03;99376.91;;;1.82;100.00
30967;BME280;17649;51.836;8.330;2024-01-15T04:25:04;99372.69;;;1.81;100.00
30967;BME280;17649;51.836;8.330;2024-01-15T04:28:05;99371.69;;;1.85;100.00
30967;BME280;17649;51.836;8.330;2024-01-15T04:31:05;99364.63;;;1.70;100.00
30967;BME280;17649;51.836;8.330;2024-01-15T04:34:06;99360.13;;;1.55;100.00
30967;BME280;17649;51.836;8.330;2024-01-15T04:37:06;99355.72;;;1.58;100.00
30967;BME280;17649;51.836;8.330;2024-01-15T04:40:08;99359.88;;;1.61;100.00
30967;BME280;17649;51.836;8.330;2024-01-15T04:43:08;99357.69;;;1.73;100.00
30967;BME280;17649;51.836;8.330;2024-01-15T04:46:09;99349.06;;;1.76;100.00
30967;BME280;17649;51.836;8.330;2024-01-15T04:49:11;99350.78;;;1.75;100.00
30967;BME280;17649;51.836;8.330;2024-01-15T04:52:11;99346.72;;;1.71;100.00
30967;BME280;17649;51.836;8.330;2024-01-15T04:55:12;99356.84;;;1.73;100.00
30967;BME280;17649;51.836;8.330;2024-01-15T04:58:13;99347.34;;;1.76;100.00
30967;BME280;17649;51.836;8.330;2024-01-15T05:01:15;99334.88;;;1.91;100.00
30967;BME280;17649;51.836;8.330;2024-01-15T05:04:16;99331.00;;;1.82;100.00
30967;BME280;17649;51.836;8.330;2024-01-15T05:07:16;99325.34;;;1.74;100.00
30967;BME280;17649;51.836;8.330;2024-01-15T05:10:16;99325.78;;;1.85;100.00
30967;BME280;17649;51.836;8.330;2024-01-15T05:13:17;99319.91;;;1.83;100.00
30967;BME280;17649;51.836;8.330;2024-01-15T05:16:17;99319.41;;;1.95;100.00
30967;BME280;17649;51.836;8.330;2024-01-15T05:19:18;99323.66;;;1.53;100.00
30967;BME280;17649;51.836;8.330;2024-01-15T05:22:18;99325.06;;;1.60;100.00
30967;BME280;17649;51.836;8.330;2024-01-15T05:25:18;99337.19;;;1.55;100.00
30967;BME280;17649;51.836;8.330;2024-01-15T05:28:19;99332.06;;;1.55;100.00
30967;BME280;17649;51.836;8.330;2024-01-15T05:31:19;99330.34;;;1.55;100.00
30967;BME280;17649;51.836;8.330;2024-01-15T05:34:19;99339.25;;;1.67;100.00
30967;BME280;17649;51.836;8.330;2024-01-15T05:37:20;99325.50;;;1.49;100.00
30967;BME280;17649;51.836;8.330;2024-01-15T05:40:20;99335.72;;;1.47;100.00
30967;BME280;17649;51.836;8.330;2024-01-15T05:43:20;99340.25;;;1.63;100.00
30967;BME280;17649;51.836;8.330;2024-01-15T05:46:21;99335.69;;;1.49;100.00
30967;BME280;17649;51.836;8.330;2024-01-15T05:49:21;99337.50;;;1.45;100.00
30967;BME280;17649;51.836;8.330;2024-01-15T05:52:21;99337.00;;;1.37;100.00
30967;BME280;17649;51.836;8.330;2024-01-15T05:55:22;99338.59;;;1.40;100.00
30967;BME280;17649;51.836;8.330;2024-01-15T05:58:22;99333.06;;;1.29;100.00
30967;BME280;17649;51.836;8.330;2024-01-15T06:01:22;99333.63;;;1.37;100.00
30967;BME280;17649;51.836;8.330;2024-01-15T06:04:23;99334.19;;;1.43;100.00
30967;BME280;17649;51.836;8.330;2024-01-15T06:07:23;99335.31;;;1.58;100.00
30967;BME280;17649;51.836;8.330;2024-01-15T06:10:23;99343.41;;;1.69;100.00
30967;BME280;17649;51.836;8.330;2024-01-15T06:13:24;99337.88;;;1.80;100.00
30967;BME280;17649;51.836;8.330;2024-01-15T06:16:24;99325.97;;;1.59;100.00
30967;BME280;17649;51.836;8.330;2024-01-15T06:19:24;99332.19;;;1.52;100.00
30967;BME280;17649;51.836;8.330;2024-01-15T06:22:25;99342.34;;;1.53;100.00
30967;BME280;17649;51.836;8.330;2024-01-15T06:25:25;99338.19;;;1.72;100.00
30967;BME280;17649;51.836;8.330;2024-01-15T06:28:26;99339.63;;;1.78;100.00
30967;BME280;17649;51.836;8.330;2024-01-15T06:31:26;99334.78;;;1.72;100.00
30967;BME280;17649;51.836;8.330;2024-01-15T06:34:27;99322.22;;;1.67;100.00
30967;BME280;17649;51.836;8.330;2024-01-15T06:37:27;99329.53;;;1.55;100.00
30967;BME280;17649;51.836;8.330;2024-01-15T06:40:27;99331.81;;;1.61;100.00
30967;BME280;17649;51.836;8.330;2024-01-15T06:43:28;99323.81;;;1.70;100.00
30967;BME280;17649;51.836;8.330;2024-01-15T06:46:28;99333.97;;;1.49;100.00
30967;BME280;17649;51.836;8.330;2024-01-15T06:49:29;99336.03;;;1.62;100.00
30967;BME280;17649;51.836;8.330;2024-01-15T06:52:29;99327.28;;;1.69;100.00
30967;BME280;17649;51.836;8.330;2024-01-15T06:55:30;99334.16;;;1.67;100.00
30967;BME280;17649;51.836;8.330;2024-01-15T06:58:31;99325.31;;;1.54;100.00
30967;BME280;17649;51.836;8.330;2024-01-15T07:01:31;99331.75;;;1.84;100.00
30967;BME280;17649;51.836;8.330;2024-01-15T07:04:32;99332.59;;;1.85;100.00
30967;BME280;17649;51.836;8.330;2024-01-15T07:07:33;99336.56;;;1.70;100.00
30967;BME280;17649;51.836;8.330;2024-01-15T07:10:33;99330.16;;;1.60;100.00
30967;BME280;17649;51.836;8.330;2024-01-15T07:13:33;99337.53;;;1.67;100.00
30967;BME280;17649;51.836;8.330;2024-01-15T07:16:34;99346.19;;;1.85;100.00
30967;BME280;17649;51.836;8.330;2024-01-15T07:19:34;99343.69;;;1.62;100.00
30967;BME280;17649;51.836;8.330;2024-01-15T07:22:38;99354.72;;;1.84;100.00
30967;BME280;17649;51.836;8.330;2024-01-15T07:25:38;99339.75;;;1.75;100.00
30967;BME280;17649;51.836;8.330;2024-01-15T07:28:38;99351.09;;;1.90;100.00
30967;BME280;17649;51.836;8.330;2024-01-15T07:31:39;99344.28;;;1.68;100.00
30967;BME280;17649;51.836;8.330;2024-01-15T07:34:39;99336.31;;;1.76;100.00
30967;BME280;17649;51.836;8.330;2024-01-15T07:37:39;99346.13;;;1.65;100.00
30967;BME280;17649;51.836;8.330;2024-01-15T07:40:40;99353.78;;;1.65;100.00
30967;BME280;17649;51.836;8.330;2024-01-15T07:43:40;99355.91;;;1.75;100.00
30967;BME280;17649;51.836;8.330;2024-01-15T07:46:44;99354.06;;;1.35;100.00
30967;BME280;17649;51.836;8.330;2024-01-15T07:49:45;99358.72;;;1.24;100.00
30967;BME280;17649;51.836;8.330;2024-01-15T07:52:45;99362.38;;;1.17;100.00
30967;BME280;17649;51.836;8.330;2024-01-15T07:55:46;99367.25;;;1.23;100.00
30967;BME280;17649;51.836;8.330;2024-01-15T07:58:46;99362.66;;;1.09;100.00
30967;BME280;17649;51.836;8.330;2024-01-15T08:01:47;99363.09;;;1.21;100.00
30967;BME280;17649;51.836;8.330;2024-01-15T08:04:47;99365.47;;;1.02;100.00
30967;BME280;17649;51.836;8.330;2024-01-15T08:07:48;99369.47;;;1.09;100.00
30967;BME280;17649;51.836;8.330;2024-01-15T08:10:49;99366.38;;;1.24;100.00
30967;BME280;17649;51.836;8.330;2024-01-15T08:13:49;99359.22;;;1.10;100.00
30967;BME280;17649;51.836;8.330;2024-01-15T08:16:49;99366.19;;;1.29;100.00
30967;BME280;17649;51.836;8.330;2024-01-15T08:19:50;99360.59;;;1.19;100.00
30967;BME280;17649;51.836;8.330;2024-01-15T08:22:51;99366.38;;;1.24;100.00
30967;BME280;17649;51.836;8.330;2024-01-15T08:25:51;99363.56;;;1.30;100.00
30967;BME280;17649;51.836;8.330;2024-01-15T08:28:52;99365.16;;;1.34;100.00
30967;BME280;17649;51.836;8.330;2024-01-15T08:31:52;99355.09;;;1.30;100.00
30967;BME280;17649;51.836;8.330;2024-01-15T08:34:53;99355.88;;;1.32;100.00
30967;BME280;17649;51.836;8.330;2024-01-15T08:37:53;99350.13;;;1.48;100.00
30967;BME280;17649;51.836;8.330;2024-01-15T08:40:53;99354.59;;;1.43;100.00
30967;BME280;17649;51.836;8.330;2024-01-15T08:43:56;99348.97;;;1.57;100.00
30967;BME280;17649;51.836;8.330;2024-01-15T08:46:57;99350.38;;;1.42;100.00
30967;BME280;17649;51.836;8.330;2024-01-15T08:49:57;99361.34;;;1.44;100.00
30967;BME280;17649;51.836;8.330;2024-01-15T08:52:59;99367.84;;;1.30;100.00
30967;BME280;17649;51.836;8.330;2024-01-15T08:55:59;99359.44;;;1.28;100.00
30967;BME280;17649;51.836;8.330;2024-01-15T08:58:59;99354.00;;;1.37;100.00
30967;BME280;17649;51.836;8.330;2024-01-15T09:02:00;99354.50;;;1.23;100.00
30967;BME280;17649;51.836;8.330;2024-01-15T09:05:00;99353.06;;;1.39;100.00
30967;BME280;17649;51.836;8.330;2024-01-15T09:08:00;99347.84;;;1.42;100.00
30967;BME280;17649;51.836;8.330;2024-01-15T09:11:01;99355.16;;;1.28;100.00
30967;BME280;17649;51.836;8.330;2024-01-15T09:14:03;99351.53;;;1.57;100.00
30967;BME280;17649;51.836;8.330;2024-01-15T09:17:06;99360.63;;;1.41;100.00
30967;BME280;17649;51.836;8.330;2024-01-15T09:20:07;99363.38;;;1.80;100.00
30967;BME280;17649;51.836;8.330;2024-01-15T09:23:08;99367.25;;;1.68;100.00
30967;BME280;17649;51.836;8.330;2024-01-15T09:26:09;99368.31;;;1.85;100.00
30967;BME280;17649;51.836;8.330;2024-01-15T09:29:09;99355.31;;;1.69;100.00
30967;BME280;17649;51.836;8.330;2024-01-15T09:32:10;99360.53;;;1.66;100.00
30967;BME280;17649;51.836;8.330;2024-01-15T09:35:10;99354.84;;;1.81;100.00
30967;BME280;17649;51.836;8.330;2024-01-15T09:38:10;99350.63;;;1.80;100.00
30967;BME280;17649;51.836;8.330;2024-01-15T09:41:11;99356.66;;;1.77;100.00
30967;BME280;17649;51.836;8.330;2024-01-15T09:44:12;99366.63;;;1.62;100.00
30967;BME280;17649;51.836;8.330;2024-01-15T09:47:12;99362.34;;;1.62;100.00
30967;BME280;17649;51.836;8.330;2024-01-15T09:50:13;99354.66;;;1.86;100.00
30967;BME280;17649;51.836;8.330;2024-01-15T09:53:15;99349.84;;;2.00;100.00
30967;BME280;17649;51.836;8.330;2024-01-15T09:56:16;99350.53;;;2.03;100.00
30967;BME280;17649;51.836;8.330;2024-01-15T09:59:17;99353.03;;;2.05;100.00
30967;BME280;17649;51.836;8.330;2024-01-15T10:02:18;99339.50;;;2.03;100.00
30967;BME280;17649;51.836;8.330;2024-01-15T10:05:18;99349.63;;;1.84;100.00
30967;BME280;17649;51.836;8.330;2024-01-15T10:08:19;99352.91;;;2.08;100.00
30967;BME280;17649;51.836;8.330;2024-01-15T10:11:20;99347.91;;;2.05;100.00
30967;BME280;17649;51.836;8.330;2024-01-15T10:14:20;99355.84;;;2.19;100.00
30967;BME280;17649;51.836;8.330;2024-01-15T10:17:21;99357.78;;;1.92;100.00
30967;BME280;17649;51.836;8.330;2024-01-15T10:20:21;99357.34;;;2.25;100.00
30967;BME280;17649;51.836;8.330;2024-01-15T10:23:24;99347.47;;;1.95;100.00
30967;BME280;17649;51.836;8.330;2024-01-15T10:26:25;99344.31;;;2.11;100.00
30967;BME280;17649;51.836;8.330;2024-01-15T10:29:26;99332.06;;;2.19;100.00
30967;BME280;17649;51.836;8.330;2024-01-15T10:32:26;99328.88;;;2.34;100.00
30967;BME280;17649;51.836;8.330;2024-01-15T10:35:31;99338.94;;;2.37;100.00
30967;BME280;17649;51.836;8.330;2024-01-15T10:38:32;99322.25;;;2.30;100.00
30967;BME280;17649;51.836;8.330;2024-01-15T10:41:32;99309.34;;;2.33;100.00
30967;BME280;17649;51.836;8.330;2024-01-15T10:44:32;99325.97;;;2.62;100.00
30967;BME280;17649;51.836;8.330;2024-01-15T10:47:33;99326.44;;;2.51;100.00
30967;BME280;17649;51.836;8.330;2024-01-15T10:50:33;99326.25;;;2.35;100.00
30967;BME280;17649;51.836;8.330;2024-01-15T10:53:34;99317.09;;;2.50;100.00
30967;BME280;17649;51.836;8.330;2024-01-15T10:56:37;99311.06;;;2.32;100.00
30967;BME280;17649;51.836;8.330;2024-01-15T10:59:37;99313.41;;;2.57;100.00
30967;BME280;17649;51.836;8.330;2024-01-15T11:02:37;99315.06;;;2.38;100.00
30967;BME280;17649;51.836;8.330;2024-01-15T11:05:39;99304.94;;;2.76;100.00
30967;BME280;17649;51.836;8.330;2024-01-15T11:08:39;99316.81;;;2.77;100.00
30967;BME280;17649;51.836;8.330;2024-01-15T11:11:44;99308.56;;;2.51;100.00
30967;BME280;17649;51.836;8.330;2024-01-15T11:14:48;99305.00;;;2.74;100.00
30967;BME280;17649;51.836;8.330;2024-01-15T11:17:59;99307.16;;;3.21;100.00
30967;BME280;17649;51.836;8.330;2024-01-15T11:24:34;99297.25;;;3.15;100.00
30967;BME280;17649;51.836;8.330;2024-01-15T11:30:41;99303.44;;;3.28;100.00
30967;BME280;17649;51.836;8.330;2024-01-15T11:33:49;99313.72;;;2.70;100.00
30967;BME280;17649;51.836;8.330;2024-01-15T11:39:54;99305.66;;;2.40;100.00
30967;BME280;17649;51.836;8.330;2024-01-15T11:42:55;99321.31;;;2.51;100.00
30967;BME280;17649;51.836;8.330;2024-01-15T11:45:55;99323.22;;;2.66;100.00
30967;BME280;17649;51.836;8.330;2024-01-15T11:49:03;99321.31;;;2.51;100.00
30967;BME280;17649;51.836;8.330;2024-01-15T11:52:05;99310.22;;;2.52;100.00
30967;BME280;17649;51.836;8.330;2024-01-15T11:55:15;99314.19;;;2.59;100.00
30967;BME280;17649;51.836;8.330;2024-01-15T11:58:17;99304.81;;;2.79;100.00
30967;BME280;17649;51.836;8.330;2024-01-15T12:01:18;99295.94;;;2.67;100.00
30967;BME280;17649;51.836;8.330;2024-01-15T12:04:20;99311.19;;;2.89;100.00
30967;BME280;17649;51.836;8.330;2024-01-15T12:07:21;99297.75;;;2.65;100.00
30967;BME280;17649;51.836;8.330;2024-01-15T12:10:22;99305.31;;;2.87;100.00
30967;BME280;17649;51.836;8.330;2024-01-15T12:13:22;99311.75;;;3.14;100.00
30967;BME280;17649;51.836;8.330;2024-01-15T12:16:23;99308.75;;;2.86;100.00
30967;BME280;17649;51.836;8.330;2024-01-15T12:19:23;99299.22;;;2.71;100.00
30967;BME280;17649;51.836;8.330;2024-01-15T12:22:24;99317.56;;;2.79;100.00
30967;BME280;17649;51.836;8.330;2024-01-15T12:25:25;99315.97;;;2.57;100.00
30967;BME280;17649;51.836;8.330;2024-01-15T12:28:29;99312.38;;;2.61;100.00
30967;BME280;17649;51.836;8.330;2024-01-15T12:31:30;99310.50;;;2.65;100.00
30967;BME280;17649;51.836;8.330;2024-01-15T12:34:31;99315.91;;;2.78;100.00
30967;BME280;17649;51.836;8.330;2024-01-15T12:37:32;99316.59;;;2.62;100.00
30967;BME280;17649;51.836;8.330;2024-01-15T12:40:35;99319.13;;;2.62;100.00
30967;BME280;17649;51.836;8.330;2024-01-15T12:43:35;99317.22;;;2.67;100.00
30967;BME280;17649;51.836;8.330;2024-01-15T12:46:36;99327.00;;;2.58;100.00
30967;BME280;17649;51.836;8.330;2024-01-15T12:49:37;99313.94;;;2.45;100.00
30967;BME280;17649;51.836;8.330;2024-01-15T12:52:41;99328.22;;;2.49;100.00
30967;BME280;17649;51.836;8.330;2024-01-15T12:55:41;99323.81;;;2.53;100.00
30967;BME280;17649;51.836;8.330;2024-01-15T12:58:41;99330.84;;;2.48;100.00
30967;BME280;17649;51.836;8.330;2024-01-15T13:01:42;99327.66;;;2.43;100.00
30967;BME280;17649;51.836;8.330;2024-01-15T13:04:42;99310.78;;;2.59;100.00
30967;BME280;17649;51.836;8.330;2024-01-15T13:07:43;99307.34;;;2.60;100.00
30967;BME280;17649;51.836;8.330;2024-01-15T13:10:43;99303.44;;;3.28;100.00
30967;BME280;17649;51.836;8.330;2024-01-15T13:13:44;99293.91;;;2.94;100.00
30967;BME280;17649;51.836;8.330;2024-01-15T13:16:44;99301.09;;;2.86;100.00
30967;BME280;17649;51.836;8.330;2024-01-15T13:19:44;99299.28;;;2.69;100.00
30967;BME280;17649;51.836;8.330;2024-01-15T13:22:45;99308.31;;;2.37;100.00
30967;BME280;17649;51.836;8.330;2024-01-15T13:25:46;99307.44;;;2.18;100.00
30967;BME280;17649;51.836;8.330;2024-01-15T13:28:46;99284.19;;;2.44;100.00
30967;BME280;17649;51.836;8.330;2024-01-15T13:31:46;99302.44;;;2.55;100.00
30967;BME280;17649;51.836;8.330;2024-01-15T13:34:47;99293.81;;;2.58;100.00
30967;BME280;17649;51.836;8.330;2024-01-15T13:37:47;99299.06;;;2.34;100.00
30967;BME280;17649;51.836;8.330;2024-01-15T13:40:47;99305.97;;;2.32;100.00
30967;BME280;17649;51.836;8.330;2024-01-15T13:43:49;99312.97;;;2.07;100.00
30967;BME280;17649;51.836;8.330;2024-01-15T13:46:50;99314.69;;;2.06;100.00
30967;BME280;17649;51.836;8.330;2024-01-15T13:49:50;99318.13;;;1.85;100.00
30967;BME280;17649;51.836;8.330;2024-01-15T13:52:50;99328.03;;;2.13;100.00
30967;BME280;17649;51.836;8.330;2024-01-15T13:55:51;99325.63;;;2.10;100.00
30967;BME280;17649;51.836;8.330;2024-01-15T13:58:51;99331.91;;;2.01;100.00
30967;BME280;17649;51.836;8.330;2024-01-15T14:01:52;99325.63;;;2.10;100.00
30967;BME280;17649;51.836;8.330;2024-01-15T14:04:52;99332.63;;;2.05;100.00
30967;BME280;17649;51.836;8.330;2024-01-15T14:07:52;99344.94;;;1.95;100.00
30967;BME280;17649;51.836;8.330;2024-01-15T14:10:53;99348.88;;;2.02;100.00
30967;BME280;17649;51.836;8.330;2024-01-15T14:13:54;99344.47;;;2.06;100.00
30967;BME280;17649;51.836;8.330;2024-01-15T14:16:54;99328.06;;;1.91;100.00
30967;BME280;17649;51.836;8.330;2024-01-15T14:19:55;99342.53;;;2.13;100.00
30967;BME280;17649;51.836;8.330;2024-01-15T14:22:55;99331.56;;;2.11;100.00
30967;BME280;17649;51.836;8.330;2024-01-15T14:25:56;99341.63;;;2.14;100.00
30967;BME280;17649;51.836;8.330;2024-01-15T14:28:56;99340.59;;;1.97;100.00
30967;BME280;17649;51.836;8.330;2024-01-15T14:31:56;99338.81;;;1.99;100.00
30967;BME280;17649;51.836;8.330;2024-01-15T14:34:57;99328.25;;;2.08;100.00
30967;BME280;17649;51.836;8.330;2024-01-15T14:37:57;99339.75;;;1.97;100.00
30967;BME280;17649;51.836;8.330;2024-01-15T14:40:58;99349.50;;;1.87;100.00
30967;BME280;17649;51.836;8.330;2024-01-15T14:43:58;99354.72;;;1.84;100.00
30967;BME280;17649;51.836;8.330;2024-01-15T14:46:59;99351.13;;;2.10;100.00
30967;BME280;17649;51.836;8.330;2024-01-15T14:49:59;99369.28;;;2.02;100.00
30967;BME280;17649;51.836;8.330;2024-01-15T14:52:59;99378.53;;;2.27;100.00
30967;BME280;17649;51.836;8.330;2024-01-15T14:56:00;99385.44;;;2.03;100.00
30967;BME280;17649;51.836;8.330;2024-01-15T14:59:02;99394.16;;;1.97;100.00
30967;BME280;17649;51.836;8.330;2024-01-15T15:02:03;99399.84;;;2.04;100.00
30967;BME280;17649;51.836;8.330;2024-01-15T15:05:03;99398.72;;;1.89;100.00
30967;BME280;17649;51.836;8.330;2024-01-15T15:08:04;99419.38;;;1.83;100.00
30967;BME280;17649;51.836;8.330;2024-01-15T15:11:08;99423.81;;;1.78;100.00
30967;BME280;17649;51.836;8.330;2024-01-15T15:14:09;99436.28;;;1.86;100.00
30967;BME280;17649;51.836;8.330;2024-01-15T15:17:09;99444.19;;;1.79;100.00
30967;BME280;17649;51.836;8.330;2024-01-15T15:20:10;99441.00;;;1.73;100.00
30967;BME280;17649;51.836;8.330;2024-01-15T15:23:10;99447.84;;;1.72;100.00
30967;BME280;17649;51.836;8.330;2024-01-15T15:26:11;99451.09;;;1.76;100.00
30967;BME280;17649;51.836;8.330;2024-01-15T15:29:11;99466.59;;;1.93;100.00
30967;BME280;17649;51.836;8.330;2024-01-15T15:32:12;99473.59;;;1.88;100.00
30967;BME280;17649;51.836;8.330;2024-01-15T15:35:13;99474.31;;;1.92;100.00
30967;BME280;17649;51.836;8.330;2024-01-15T15:38:13;99480.75;;;1.78;100.00
30967;BME280;17649;51.836;8.330;2024-01-15T15:41:13;99488.25;;;1.60;100.00
30967;BME280;17649;51.836;8.330;2024-01-15T15:44:14;99489.78;;;1.87;100.00
30967;BME280;17649;51.836;8.330;2024-01-15T15:47:16;99508.16;;;2.19;100.00
30967;BME280;17649;51.836;8.330;2024-01-15T15:50:17;99512.03;;;1.84;100.00
30967;BME280;17649;51.836;8.330;2024-01-15T15:53:18;99517.53;;;1.96;100.00
30967;BME280;17649;51.836;8.330;2024-01-15T15:56:20;99522.94;;;2.11;100.00
30967;BME280;17649;51.836;8.330;2024-01-15T15:59:20;99532.41;;;2.07;100.00
30967;BME280;17649;51.836;8.330;2024-01-15T16:02:21;99539.13;;;1.63;100.00
30967;BME280;17649;51.836;8.330;2024-01-15T16:05:22;99544.22;;;1.63;100.00